createdAt,value
2017-05-31T00:01:01.831Z,0
2017-05-31T00:02:12.380Z,0
2017-05-31T00:03:22.353Z,0
2017-05-31T00:04:32.350Z,0
2017-05-31T00:05:42.629Z,0
2017-05-31T00:06:52.910Z,0
2017-05-31T00:08:03.442Z,0
2017-05-31T00:09:13.729Z,0
2017-05-31T00:10:23.700Z,0
2017-05-31T00:11:33.997Z,0
2017-05-31T00:12:44.020Z,0
2017-05-31T00:13:54.236Z,0
2017-05-31T00:15:04.520Z,0
2017-05-31T00:16:14.802Z,0
2017-05-31T00:17:24.769Z,0
2017-05-31T00:18:35.064Z,0
2017-05-31T00:19:45.283Z,0
2017-05-31T00:20:54.640Z,0
2017-05-31T00:22:04.927Z,0
2017-05-31T00:23:15.213Z,0
2017-05-31T00:24:25.205Z,0
2017-05-31T00:25:35.736Z,0
2017-05-31T00:26:46.013Z,0
2017-05-31T00:27:55.991Z,0
2017-05-31T00:29:06.282Z,0
2017-05-31T00:30:16.250Z,0
2017-05-31T00:31:25.891Z,0
2017-05-31T00:32:35.547Z,0
2017-05-31T00:33:45.518Z,0
2017-05-31T00:34:55.804Z,0
2017-05-31T00:36:06.095Z,0
2017-05-31T00:37:16.691Z,0
2017-05-31T00:38:26.996Z,0
2017-05-31T00:39:37.291Z,0
2017-05-31T00:40:46.976Z,0
2017-05-31T00:41:56.945Z,0
2017-05-31T00:43:07.478Z,0
2017-05-31T00:44:17.756Z,0
2017-05-31T00:45:27.747Z,0
2017-05-31T00:46:38.024Z,0
2017-05-31T00:47:48.306Z,0
2017-05-31T00:48:58.267Z,0
2017-05-31T00:50:08.711Z,0
2017-05-31T00:51:18.981Z,0
2017-05-31T00:52:28.961Z,0
2017-05-31T00:53:39.236Z,0
2017-05-31T00:54:49.771Z,0
2017-05-31T00:56:00.059Z,0
2017-05-31T00:57:10.339Z,0
2017-05-31T00:58:20.625Z,0
2017-05-31T00:59:30.910Z,0
2017-05-31T01:00:41.131Z,0
2017-05-31T01:01:51.430Z,0
2017-05-31T01:03:01.411Z,0
2017-05-31T01:04:11.688Z,0
2017-05-31T01:05:21.968Z,0
2017-05-31T01:06:32.526Z,0
2017-05-31T01:07:42.830Z,0
2017-05-31T01:08:53.107Z,0
2017-05-31T01:10:03.386Z,0
2017-05-31T01:11:13.675Z,0
2017-05-31T01:12:24.203Z,0
2017-05-31T01:13:34.493Z,0
2017-05-31T01:14:44.472Z,0
2017-05-31T01:15:54.758Z,0
2017-05-31T01:17:05.115Z,0
2017-05-31T01:18:15.026Z,0
2017-05-31T01:19:24.995Z,0
2017-05-31T01:20:34.992Z,0
2017-05-31T01:21:45.274Z,0
2017-05-31T01:22:55.547Z,0
2017-05-31T01:24:05.769Z,0
2017-05-31T01:25:16.058Z,0
2017-05-31T01:26:25.714Z,0
2017-05-31T01:27:35.686Z,0
2017-05-31T01:28:45.651Z,0
2017-05-31T01:29:56.230Z,0
2017-05-31T01:31:06.521Z,0
2017-05-31T01:32:16.802Z,0
2017-05-31T01:33:27.291Z,0
2017-05-31T01:34:37.582Z,0
2017-05-31T01:35:48.120Z,0
2017-05-31T01:36:58.413Z,0
2017-05-31T01:38:08.701Z,0
2017-05-31T01:39:18.668Z,0
2017-05-31T01:40:28.951Z,0
2017-05-31T01:41:39.479Z,0
2017-05-31T01:42:49.446Z,0
2017-05-31T01:43:59.427Z,0
2017-05-31T01:45:09.707Z,0
2017-05-31T01:46:19.988Z,0
2017-05-31T01:47:30.522Z,0
2017-05-31T01:48:40.807Z,0
2017-05-31T01:49:51.099Z,0
2017-05-31T01:51:01.084Z,0
2017-05-31T01:52:11.059Z,0
2017-05-31T01:53:21.602Z,0
2017-05-31T01:54:31.888Z,0
2017-05-31T01:55:42.166Z,0
2017-05-31T01:56:52.448Z,0
2017-05-31T01:58:02.415Z,0
2017-05-31T01:59:12.630Z,0
2017-05-31T02:00:22.917Z,0
2017-05-31T02:01:32.578Z,0
2017-05-31T02:02:42.538Z,0
2017-05-31T02:03:52.826Z,0
2017-05-31T02:05:02.467Z,0
2017-05-31T02:06:12.740Z,0
2017-05-31T02:07:22.399Z,0
2017-05-31T02:08:32.383Z,0
2017-05-31T02:09:42.714Z,0
2017-05-31T02:10:53.247Z,0
2017-05-31T02:12:03.538Z,0
2017-05-31T02:13:13.552Z,0
2017-05-31T02:14:23.837Z,0
2017-05-31T02:15:33.804Z,0
2017-05-31T02:16:44.338Z,0
2017-05-31T02:17:54.369Z,0
2017-05-31T02:19:04.651Z,0
2017-05-31T02:20:14.940Z,4
2017-05-31T02:21:25.226Z,4
2017-05-31T02:22:35.759Z,0
2017-05-31T02:23:46.037Z,4
2017-05-31T02:24:56.365Z,4
2017-05-31T02:26:06.648Z,4
2017-05-31T02:27:16.933Z,8
2017-05-31T02:28:27.475Z,8
2017-05-31T02:29:37.762Z,8
2017-05-31T02:30:48.044Z,8
2017-05-31T02:31:58.320Z,8
2017-05-31T02:33:08.296Z,12
2017-05-31T02:34:18.268Z,16
2017-05-31T02:35:28.556Z,16
2017-05-31T02:36:38.528Z,16
2017-05-31T02:37:48.818Z,20
2017-05-31T02:38:58.797Z,24
2017-05-31T02:40:09.326Z,24
2017-05-31T02:41:19.336Z,28
2017-05-31T02:42:29.631Z,28
2017-05-31T02:43:39.927Z,32
2017-05-31T02:44:49.890Z,24
2017-05-31T02:46:00.162Z,32
2017-05-31T02:47:10.456Z,36
2017-05-31T02:48:20.741Z,40
2017-05-31T02:49:30.712Z,44
2017-05-31T02:50:40.984Z,48
2017-05-31T02:51:51.214Z,56
2017-05-31T02:53:01.192Z,60
2017-05-31T02:54:11.531Z,60
2017-05-31T02:55:21.814Z,68
2017-05-31T02:56:32.105Z,76
2017-05-31T02:57:42.632Z,84
2017-05-31T02:58:52.600Z,84
2017-05-31T03:00:02.876Z,88
2017-05-31T03:01:13.154Z,92
2017-05-31T03:02:23.442Z,96
2017-05-31T03:03:33.658Z,104
2017-05-31T03:04:43.624Z,112
2017-05-31T03:05:53.669Z,120
2017-05-31T03:07:03.959Z,128
2017-05-31T03:08:14.237Z,140
2017-05-31T03:09:24.822Z,152
2017-05-31T03:10:34.790Z,160
2017-05-31T03:11:44.758Z,176
2017-05-31T03:12:55.048Z,168
2017-05-31T03:14:05.348Z,184
2017-05-31T03:15:15.568Z,192
2017-05-31T03:16:25.536Z,192
2017-05-31T03:17:35.826Z,204
2017-05-31T03:18:45.493Z,232
2017-05-31T03:19:55.772Z,300
2017-05-31T03:21:06.308Z,256
2017-05-31T03:22:16.598Z,340
2017-05-31T03:23:26.880Z,352
2017-05-31T03:24:37.168Z,400
2017-05-31T03:25:47.459Z,224
2017-05-31T03:26:57.989Z,216
2017-05-31T03:28:08.512Z,244
2017-05-31T03:29:18.174Z,312
2017-05-31T03:30:28.466Z,412
2017-05-31T03:31:38.755Z,412
2017-05-31T03:32:49.287Z,512
2017-05-31T03:33:59.273Z,476
2017-05-31T03:35:09.560Z,420
2017-05-31T03:36:19.842Z,436
2017-05-31T03:37:29.819Z,492
2017-05-31T03:38:40.047Z,432
2017-05-31T03:39:50.326Z,368
2017-05-31T03:41:00.612Z,336
2017-05-31T03:42:10.897Z,328
2017-05-31T03:43:20.869Z,200
2017-05-31T03:44:31.465Z,180
2017-05-31T03:45:41.749Z,216
2017-05-31T03:46:51.733Z,296
2017-05-31T03:48:02.029Z,348
2017-05-31T03:49:12.008Z,264
2017-05-31T03:50:22.538Z,292
2017-05-31T03:51:32.202Z,280
2017-05-31T03:52:42.483Z,336
2017-05-31T03:53:52.462Z,364
2017-05-31T03:55:02.743Z,384
2017-05-31T03:56:13.283Z,440
2017-05-31T03:57:23.578Z,480
2017-05-31T03:58:33.545Z,476
2017-05-31T03:59:43.521Z,400
2017-05-31T04:00:53.481Z,412
2017-05-31T04:02:04.033Z,540
2017-05-31T04:03:13.702Z,624
2017-05-31T04:04:23.989Z,664
2017-05-31T04:05:34.278Z,644
2017-05-31T04:06:44.569Z,540
2017-05-31T04:07:55.107Z,476
2017-05-31T04:09:05.098Z,576
2017-05-31T04:10:15.386Z,588
2017-05-31T04:11:25.665Z,608
2017-05-31T04:12:35.957Z,568
2017-05-31T04:13:46.171Z,668
2017-05-31T04:14:56.452Z,600
2017-05-31T04:16:06.433Z,588
2017-05-31T04:17:16.411Z,376
2017-05-31T04:18:26.374Z,380
2017-05-31T04:19:36.911Z,396
2017-05-31T04:20:47.191Z,468
2017-05-31T04:21:57.474Z,732
2017-05-31T04:23:07.760Z,476
2017-05-31T04:24:17.746Z,604
2017-05-31T04:25:28.281Z,472
2017-05-31T04:26:38.554Z,452
2017-05-31T04:27:48.839Z,396
2017-05-31T04:28:58.505Z,368
2017-05-31T04:30:08.494Z,388
2017-05-31T04:31:18.737Z,424
2017-05-31T04:32:29.110Z,408
2017-05-31T04:33:39.398Z,592
2017-05-31T04:34:49.677Z,712
2017-05-31T04:35:59.967Z,816
2017-05-31T04:37:10.497Z,804
2017-05-31T04:38:20.817Z,744
2017-05-31T04:39:31.097Z,592
2017-05-31T04:40:41.077Z,716
2017-05-31T04:41:50.741Z,628
2017-05-31T04:43:01.287Z,664
2017-05-31T04:44:11.261Z,588
2017-05-31T04:45:21.227Z,576
2017-05-31T04:46:31.205Z,720
2017-05-31T04:47:41.493Z,1084
2017-05-31T04:48:52.030Z,1288
2017-05-31T04:50:02.000Z,1104
2017-05-31T04:51:11.976Z,700
2017-05-31T04:52:22.323Z,868
2017-05-31T04:53:32.609Z,892
2017-05-31T04:54:43.187Z,812
2017-05-31T04:55:53.479Z,1012
2017-05-31T04:57:03.774Z,1120
2017-05-31T04:58:13.739Z,1160
2017-05-31T04:59:23.699Z,1488
2017-05-31T05:00:34.289Z,1432
2017-05-31T05:01:44.582Z,1512
2017-05-31T05:02:54.566Z,1264
2017-05-31T05:04:05.077Z,1396
2017-05-31T05:05:15.045Z,1340
2017-05-31T05:06:25.585Z,1320
2017-05-31T05:07:35.864Z,1304
2017-05-31T05:08:45.211Z,1452
2017-05-31T05:09:55.501Z,1564
2017-05-31T05:11:05.797Z,1456
2017-05-31T05:12:16.010Z,1468
2017-05-31T05:13:26.299Z,980
2017-05-31T05:14:36.579Z,1004
2017-05-31T05:15:46.561Z,1112
2017-05-31T05:16:56.847Z,964
2017-05-31T05:18:07.404Z,788
2017-05-31T05:19:17.678Z,944
2017-05-31T05:20:27.968Z,1204
2017-05-31T05:21:38.250Z,1140
2017-05-31T05:22:48.218Z,1332
2017-05-31T05:23:58.437Z,1832
2017-05-31T05:25:08.719Z,1596
2017-05-31T05:26:18.395Z,1508
2017-05-31T05:27:28.668Z,1700
2017-05-31T05:28:38.368Z,1640
2017-05-31T05:29:48.901Z,1564
2017-05-31T05:30:59.196Z,1436
2017-05-31T05:32:09.483Z,1988
2017-05-31T05:33:19.772Z,2156
2017-05-31T05:34:29.760Z,3108
2017-05-31T05:35:40.288Z,2676
2017-05-31T05:36:50.632Z,3016
2017-05-31T05:38:00.621Z,3124
2017-05-31T05:39:10.906Z,2724
2017-05-31T05:40:21.197Z,3504
2017-05-31T05:41:31.427Z,3376
2017-05-31T05:42:41.719Z,2648
2017-05-31T05:43:51.707Z,2156
2017-05-31T05:45:01.997Z,2136
2017-05-31T05:46:11.347Z,2680
2017-05-31T05:47:21.889Z,3096
2017-05-31T05:48:32.219Z,3800
2017-05-31T05:49:42.530Z,3920
2017-05-31T05:50:52.819Z,3480
2017-05-31T05:52:02.798Z,2508
2017-05-31T05:53:13.033Z,2784
2017-05-31T05:54:22.705Z,3884
2017-05-31T05:55:33.065Z,2784
2017-05-31T05:56:43.059Z,2544
2017-05-31T05:57:53.041Z,3128
2017-05-31T05:59:03.569Z,3384
2017-05-31T06:00:13.877Z,3464
2017-05-31T06:01:24.189Z,3752
2017-05-31T06:02:34.475Z,2384
2017-05-31T06:03:44.453Z,3236
2017-05-31T06:04:54.683Z,3216
2017-05-31T06:06:04.971Z,3348
2017-05-31T06:07:15.258Z,3528
2017-05-31T06:08:25.245Z,2780
2017-05-31T06:09:35.536Z,3044
2017-05-31T06:10:46.087Z,3192
2017-05-31T06:11:56.378Z,2852
2017-05-31T06:13:06.373Z,3104
2017-05-31T06:14:16.699Z,3000
2017-05-31T06:15:27.009Z,3216
2017-05-31T06:16:37.550Z,3248
2017-05-31T06:17:47.860Z,2224
2017-05-31T06:18:58.164Z,3276
2017-05-31T06:20:08.169Z,3324
2017-05-31T06:21:18.482Z,3480
2017-05-31T06:22:29.024Z,3600
2017-05-31T06:23:39.376Z,2828
2017-05-31T06:24:49.672Z,3668
2017-05-31T06:25:59.328Z,3992
2017-05-31T06:27:09.313Z,3356
2017-05-31T06:28:19.545Z,4076
2017-05-31T06:29:29.216Z,3968
2017-05-31T06:30:39.515Z,3268
2017-05-31T06:31:49.811Z,3212
2017-05-31T06:33:00.111Z,3612
2017-05-31T06:34:10.760Z,4200
2017-05-31T06:35:20.738Z,2660
2017-05-31T06:36:30.725Z,2340
2017-05-31T06:37:41.022Z,2084
2017-05-31T06:38:51.004Z,2584
2017-05-31T06:40:01.233Z,3356
2017-05-31T06:41:11.222Z,3192
2017-05-31T06:42:21.526Z,4016
2017-05-31T06:43:31.822Z,2760
2017-05-31T06:44:42.116Z,2172
2017-05-31T06:45:52.668Z,3612
2017-05-31T06:47:02.978Z,3000
2017-05-31T06:48:12.949Z,2944
2017-05-31T06:49:23.256Z,3264
2017-05-31T06:50:33.228Z,3252
2017-05-31T06:51:43.787Z,2796
2017-05-31T06:52:54.097Z,1800
2017-05-31T06:54:04.391Z,2016
2017-05-31T06:55:14.696Z,2768
2017-05-31T06:56:24.694Z,2740
2017-05-31T06:57:35.262Z,2988
2017-05-31T06:58:45.012Z,2780
2017-05-31T06:59:55.293Z,1424
2017-05-31T07:01:05.607Z,1760
2017-05-31T07:02:15.941Z,3716
2017-05-31T07:03:26.501Z,3712
2017-05-31T07:04:36.820Z,3076
2017-05-31T07:05:47.136Z,3176
2017-05-31T07:06:57.138Z,2660
2017-05-31T07:08:07.453Z,2612
2017-05-31T07:09:18.227Z,3032
2017-05-31T07:10:28.557Z,4192
2017-05-31T07:11:38.595Z,1984
2017-05-31T07:12:48.595Z,2736
2017-05-31T07:13:58.894Z,3380
2017-05-31T07:15:09.477Z,3600
2017-05-31T07:16:19.158Z,2420
2017-05-31T07:17:29.156Z,2516
2017-05-31T07:18:39.453Z,2808
2017-05-31T07:19:49.759Z,2940
2017-05-31T07:21:00.324Z,2316
2017-05-31T07:22:10.616Z,2288
2017-05-31T07:23:20.911Z,2996
2017-05-31T07:24:31.210Z,3520
2017-05-31T07:25:40.895Z,2824
2017-05-31T07:26:51.131Z,2600
2017-05-31T07:28:01.115Z,3092
2017-05-31T07:29:10.520Z,4028
2017-05-31T07:30:20.833Z,3864
2017-05-31T07:31:31.139Z,4628
2017-05-31T07:32:41.675Z,3520
2017-05-31T07:33:51.994Z,2156
2017-05-31T07:35:02.322Z,1616
2017-05-31T07:36:12.770Z,1740
2017-05-31T07:37:23.070Z,1908
2017-05-31T07:38:33.308Z,2164
2017-05-31T07:39:43.612Z,2340
2017-05-31T07:40:53.903Z,2468
2017-05-31T07:42:04.184Z,2060
2017-05-31T07:43:14.479Z,1776
2017-05-31T07:44:24.707Z,1376
2017-05-31T07:45:35.021Z,1360
2017-05-31T07:46:45.004Z,2012
2017-05-31T07:47:55.314Z,2324
2017-05-31T07:49:05.617Z,2552
2017-05-31T07:50:16.163Z,4508
2017-05-31T07:51:26.508Z,4912
2017-05-31T07:52:36.830Z,3792
2017-05-31T07:53:46.808Z,2824
2017-05-31T07:54:56.791Z,2288
2017-05-31T07:56:07.373Z,2548
2017-05-31T07:57:17.355Z,2592
2017-05-31T07:58:27.359Z,2320
2017-05-31T07:59:37.679Z,2056
2017-05-31T08:00:47.986Z,1920
2017-05-31T08:01:58.566Z,2056
2017-05-31T08:03:08.556Z,1988
2017-05-31T08:04:18.246Z,2020
2017-05-31T08:05:28.563Z,2728
2017-05-31T08:06:38.553Z,2420
2017-05-31T08:07:48.788Z,3116
2017-05-31T08:08:58.486Z,3456
2017-05-31T08:10:08.493Z,3624
2017-05-31T08:11:18.481Z,2724
2017-05-31T08:12:28.783Z,2384
2017-05-31T08:13:39.348Z,2396
2017-05-31T08:14:49.690Z,2292
2017-05-31T08:16:00.003Z,2200
2017-05-31T08:17:10.306Z,2120
2017-05-31T08:18:20.306Z,2100
2017-05-31T08:19:30.562Z,1932
2017-05-31T08:20:40.864Z,2192
2017-05-31T08:21:50.888Z,2488
2017-05-31T08:23:01.211Z,2892
2017-05-31T08:24:11.508Z,2892
2017-05-31T08:25:22.064Z,1908
2017-05-31T08:26:32.378Z,2812
2017-05-31T08:27:42.669Z,2964
2017-05-31T08:28:52.977Z,2656
2017-05-31T08:30:03.280Z,3440
2017-05-31T08:31:13.858Z,2548
2017-05-31T08:32:23.833Z,1596
2017-05-31T08:33:34.132Z,1676
2017-05-31T08:34:44.118Z,1620
2017-05-31T08:35:53.813Z,1908
2017-05-31T08:37:04.400Z,2424
2017-05-31T08:38:14.387Z,2664
2017-05-31T08:39:24.932Z,2048
2017-05-31T08:40:34.935Z,2720
2017-05-31T08:41:44.974Z,1864
2017-05-31T08:42:55.526Z,1868
2017-05-31T08:44:05.516Z,1676
2017-05-31T08:45:15.914Z,1444
2017-05-31T08:46:25.909Z,1416
2017-05-31T08:47:36.217Z,1452
2017-05-31T08:48:46.452Z,1456
2017-05-31T08:49:56.470Z,1540
2017-05-31T08:51:06.792Z,1584
2017-05-31T08:52:17.091Z,1428
2017-05-31T08:53:27.089Z,1776
2017-05-31T08:54:37.327Z,1968
2017-05-31T08:55:48.750Z,2192
2017-05-31T08:56:58.726Z,2328
2017-05-31T08:58:09.017Z,1848
2017-05-31T08:59:19.009Z,2116
2017-05-31T09:00:29.271Z,2188
2017-05-31T09:01:39.287Z,2988
2017-05-31T09:02:49.375Z,4388
2017-05-31T09:03:59.700Z,3596
2017-05-31T09:05:10.056Z,2168
2017-05-31T09:06:20.358Z,2480
2017-05-31T09:07:30.691Z,2380
2017-05-31T09:08:40.685Z,2068
2017-05-31T09:09:50.680Z,2052
2017-05-31T09:11:00.975Z,1932
2017-05-31T09:12:11.779Z,2532
2017-05-31T09:13:22.086Z,3348
2017-05-31T09:14:32.094Z,3580
2017-05-31T09:15:41.754Z,2776
2017-05-31T09:16:52.062Z,2456
2017-05-31T09:18:02.669Z,2316
2017-05-31T09:19:12.658Z,2360
2017-05-31T09:20:22.660Z,2308
2017-05-31T09:21:32.958Z,2584
2017-05-31T09:22:42.932Z,2980
2017-05-31T09:23:53.230Z,2920
2017-05-31T09:25:03.211Z,3540
2017-05-31T09:26:13.537Z,2636
2017-05-31T09:27:23.886Z,1836
2017-05-31T09:28:34.182Z,1684
2017-05-31T09:29:44.095Z,1696
2017-05-31T09:30:54.428Z,2332
2017-05-31T09:32:04.724Z,3208
2017-05-31T09:33:15.014Z,3424
2017-05-31T09:34:25.379Z,3368
2017-05-31T09:35:35.928Z,2360
2017-05-31T09:36:46.218Z,2176
2017-05-31T09:37:56.217Z,2196
2017-05-31T09:39:06.509Z,2880
2017-05-31T09:40:16.814Z,2520
2017-05-31T09:41:27.102Z,2500
2017-05-31T09:42:37.097Z,2440
2017-05-31T09:43:47.396Z,2752
2017-05-31T09:44:57.374Z,3332
2017-05-31T09:46:07.673Z,3816
2017-05-31T09:47:17.923Z,3188
2017-05-31T09:48:27.907Z,2944
2017-05-31T09:49:37.578Z,3728
2017-05-31T09:50:47.862Z,3880
2017-05-31T09:51:57.845Z,2628
2017-05-31T09:53:08.393Z,2084
2017-05-31T09:54:18.369Z,3128
2017-05-31T09:55:28.660Z,3816
2017-05-31T09:56:38.937Z,3372
2017-05-31T09:57:49.533Z,2656
2017-05-31T09:59:00.313Z,1984
2017-05-31T10:00:10.604Z,1916
2017-05-31T10:01:20.613Z,1976
2017-05-31T10:02:30.908Z,2176
2017-05-31T10:03:40.883Z,2500
2017-05-31T10:04:50.502Z,3824
2017-05-31T10:06:00.486Z,3432
2017-05-31T10:07:10.466Z,2176
2017-05-31T10:08:20.761Z,1400
2017-05-31T10:09:31.123Z,1304
2017-05-31T10:10:41.384Z,2104
2017-05-31T10:11:51.378Z,2432
2017-05-31T10:13:01.692Z,1832
2017-05-31T10:14:11.990Z,2096
2017-05-31T10:15:22.322Z,2356
2017-05-31T10:16:32.259Z,1576
2017-05-31T10:17:42.237Z,1392
2017-05-31T10:18:52.783Z,1444
2017-05-31T10:20:03.070Z,1540
2017-05-31T10:21:13.362Z,1616
2017-05-31T10:22:23.596Z,1848
2017-05-31T10:23:33.895Z,1952
2017-05-31T10:24:43.563Z,2000
2017-05-31T10:25:53.846Z,2040
2017-05-31T10:27:03.819Z,1976
2017-05-31T10:28:14.360Z,1424
2017-05-31T10:29:24.647Z,1428
2017-05-31T10:30:34.341Z,1884
2017-05-31T10:31:44.017Z,1360
2017-05-31T10:32:54.016Z,1268
2017-05-31T10:34:04.245Z,1412
2017-05-31T10:35:14.540Z,1788
2017-05-31T10:36:24.836Z,1652
2017-05-31T10:37:35.121Z,1668
2017-05-31T10:38:45.408Z,1964
2017-05-31T10:39:55.631Z,1744
2017-05-31T10:41:05.923Z,1876
2017-05-31T10:42:15.903Z,2656
2017-05-31T10:43:26.205Z,2528
2017-05-31T10:44:35.872Z,2892
2017-05-31T10:45:46.096Z,2044
2017-05-31T10:46:55.780Z,1776
2017-05-31T10:48:06.080Z,2108
2017-05-31T10:49:16.371Z,2352
2017-05-31T10:50:26.065Z,1832
2017-05-31T10:51:36.656Z,1548
2017-05-31T10:52:46.949Z,1644
2017-05-31T10:53:57.235Z,1604
2017-05-31T10:55:07.235Z,1704
2017-05-31T10:56:17.528Z,2088
2017-05-31T10:57:28.076Z,2620
2017-05-31T10:58:38.363Z,2712
2017-05-31T10:59:48.353Z,3132
2017-05-31T11:00:58.644Z,2668
2017-05-31T11:02:08.940Z,2912
2017-05-31T11:03:19.187Z,3428
2017-05-31T11:04:29.541Z,2800
2017-05-31T11:05:39.552Z,2760
2017-05-31T11:06:49.645Z,2616
2017-05-31T11:08:00.248Z,2080
2017-05-31T11:09:10.810Z,2228
2017-05-31T11:10:20.799Z,2600
2017-05-31T11:11:30.805Z,3224
2017-05-31T11:12:40.794Z,3356
2017-05-31T11:13:50.158Z,3292
2017-05-31T11:15:00.748Z,3368
2017-05-31T11:16:10.743Z,2124
2017-05-31T11:17:21.105Z,1328
2017-05-31T11:18:31.410Z,1216
2017-05-31T11:19:41.422Z,1368
2017-05-31T11:20:52.006Z,1800
2017-05-31T11:22:02.333Z,2028
2017-05-31T11:23:12.642Z,1472
2017-05-31T11:24:22.948Z,1396
2017-05-31T11:25:32.940Z,1764
2017-05-31T11:26:43.529Z,1608
2017-05-31T11:27:53.591Z,1304
2017-05-31T11:29:03.903Z,1252
2017-05-31T11:30:14.233Z,1180
2017-05-31T11:31:24.225Z,1180
2017-05-31T11:32:34.790Z,1056
2017-05-31T11:33:44.785Z,1044
2017-05-31T11:34:55.100Z,1120
2017-05-31T11:36:04.768Z,1048
2017-05-31T11:37:15.180Z,1256
2017-05-31T11:38:25.415Z,1276
2017-05-31T11:39:35.761Z,1276
2017-05-31T11:40:45.739Z,1244
2017-05-31T11:41:55.400Z,1204
2017-05-31T11:43:05.697Z,1228
2017-05-31T11:44:15.943Z,1292
2017-05-31T11:45:26.239Z,1424
2017-05-31T11:46:36.550Z,1572
2017-05-31T11:47:46.551Z,1592
2017-05-31T11:48:56.898Z,1492
2017-05-31T11:50:07.176Z,1512
2017-05-31T11:51:17.506Z,1648
2017-05-31T11:52:27.842Z,1672
2017-05-31T11:53:37.853Z,1916
2017-05-31T11:54:47.846Z,2204
2017-05-31T11:55:58.422Z,2448
2017-05-31T11:57:08.097Z,2572
2017-05-31T11:58:18.090Z,2276
2017-05-31T11:59:28.142Z,1960
2017-05-31T12:00:38.141Z,2316
2017-05-31T12:01:48.444Z,2392
2017-05-31T12:02:58.762Z,2004
2017-05-31T12:04:08.746Z,1624
2017-05-31T12:05:19.077Z,1380
2017-05-31T12:06:29.064Z,1312
2017-05-31T12:07:39.630Z,1300
2017-05-31T12:08:49.931Z,1200
2017-05-31T12:10:00.224Z,1280
2017-05-31T12:11:10.196Z,1264
2017-05-31T12:12:20.201Z,1236
2017-05-31T12:13:30.742Z,1236
2017-05-31T12:14:41.034Z,1272
2017-05-31T12:15:51.050Z,1328
2017-05-31T12:17:01.047Z,1712
2017-05-31T12:18:11.064Z,2184
2017-05-31T12:19:21.301Z,2576
2017-05-31T12:20:31.313Z,2700
2017-05-31T12:21:41.307Z,2020
2017-05-31T12:22:51.604Z,1568
2017-05-31T12:24:01.978Z,1696
2017-05-31T12:25:12.511Z,1636
2017-05-31T12:26:22.491Z,1356
2017-05-31T12:27:32.779Z,1232
2017-05-31T12:28:42.749Z,1092
2017-05-31T12:29:53.044Z,1200
2017-05-31T12:31:03.600Z,1296
2017-05-31T12:32:13.600Z,1288
2017-05-31T12:33:23.900Z,1336
2017-05-31T12:34:33.887Z,1532
2017-05-31T12:35:43.554Z,1416
2017-05-31T12:36:54.171Z,1240
2017-05-31T12:38:04.461Z,1304
2017-05-31T12:39:14.506Z,1348
2017-05-31T12:40:24.563Z,1648
2017-05-31T12:41:34.557Z,2072
2017-05-31T12:42:45.095Z,1548
2017-05-31T12:43:55.412Z,1840
2017-05-31T12:45:05.393Z,1912
2017-05-31T12:46:15.700Z,1640
2017-05-31T12:47:25.997Z,1396
2017-05-31T12:48:36.545Z,1328
2017-05-31T12:49:46.872Z,1556
2017-05-31T12:50:57.184Z,1960
2017-05-31T12:52:06.874Z,2316
2017-05-31T12:53:16.865Z,1960
2017-05-31T12:54:27.101Z,1676
2017-05-31T12:55:37.389Z,1968
2017-05-31T12:56:47.689Z,2288
2017-05-31T12:57:57.987Z,2852
2017-05-31T12:59:08.278Z,2852
2017-05-31T13:00:18.820Z,2328
2017-05-31T13:01:29.106Z,1856
2017-05-31T13:02:39.400Z,1744
2017-05-31T13:03:49.382Z,2096
2017-05-31T13:04:59.731Z,2540
2017-05-31T13:06:10.288Z,2684
2017-05-31T13:07:20.575Z,2432
2017-05-31T13:08:30.869Z,1540
2017-05-31T13:09:40.858Z,1696
2017-05-31T13:10:51.147Z,2464
2017-05-31T13:12:01.386Z,2944
2017-05-31T13:13:11.363Z,2128
2017-05-31T13:14:21.658Z,1500
2017-05-31T13:15:31.346Z,1356
2017-05-31T13:16:41.326Z,1516
2017-05-31T13:17:51.876Z,2032
2017-05-31T13:19:02.157Z,2024
2017-05-31T13:20:12.166Z,1748
2017-05-31T13:21:22.147Z,1652
2017-05-31T13:22:32.442Z,1704
2017-05-31T13:23:42.983Z,1876
2017-05-31T13:24:53.275Z,2148
2017-05-31T13:26:02.948Z,1876
2017-05-31T13:27:12.967Z,1736
2017-05-31T13:28:22.948Z,2324
2017-05-31T13:29:33.492Z,2320
2017-05-31T13:30:43.779Z,1988
2017-05-31T13:31:53.818Z,2052
2017-05-31T13:33:04.137Z,2844
2017-05-31T13:34:14.119Z,2616
2017-05-31T13:35:24.344Z,2328
2017-05-31T13:36:34.647Z,2388
2017-05-31T13:37:44.968Z,1992
2017-05-31T13:38:55.256Z,1812
2017-05-31T13:40:05.540Z,1920
2017-05-31T13:41:16.146Z,1904
2017-05-31T13:42:26.440Z,1740
2017-05-31T13:43:36.727Z,1764
2017-05-31T13:44:47.242Z,1764
2017-05-31T13:45:57.319Z,1736
2017-05-31T13:47:08.143Z,2252
2017-05-31T13:48:18.432Z,2772
2017-05-31T13:49:28.438Z,2876
2017-05-31T13:50:38.427Z,2496
2017-05-31T13:51:48.464Z,1392
2017-05-31T13:52:58.766Z,1104
2017-05-31T13:54:08.774Z,1180
2017-05-31T13:55:19.064Z,1144
2017-05-31T13:56:29.365Z,1520
2017-05-31T13:57:39.687Z,1424
2017-05-31T13:58:50.245Z,1220
2017-05-31T14:00:00.571Z,1104
2017-05-31T14:01:10.555Z,1292
2017-05-31T14:02:20.850Z,1380
2017-05-31T14:03:30.826Z,1240
2017-05-31T14:04:41.365Z,1412
2017-05-31T14:05:51.361Z,1704
2017-05-31T14:07:01.343Z,1588
2017-05-31T14:08:11.324Z,1152
2017-05-31T14:09:21.295Z,912
2017-05-31T14:10:31.844Z,920
2017-05-31T14:11:42.145Z,928
2017-05-31T14:12:52.455Z,888
2017-05-31T14:14:02.752Z,812
2017-05-31T14:15:12.728Z,824
2017-05-31T14:16:23.563Z,864
2017-05-31T14:17:33.853Z,1036
2017-05-31T14:18:44.145Z,1184
2017-05-31T14:19:53.803Z,1276
2017-05-31T14:21:04.093Z,1616
2017-05-31T14:22:14.314Z,1564
2017-05-31T14:23:24.610Z,1236
2017-05-31T14:24:34.291Z,1140
2017-05-31T14:25:44.596Z,1280
2017-05-31T14:26:54.883Z,1292
2017-05-31T14:28:05.431Z,1192
2017-05-31T14:29:15.430Z,1208
2017-05-31T14:30:25.711Z,1284
2017-05-31T14:31:35.696Z,1288
2017-05-31T14:32:45.689Z,1012
2017-05-31T14:33:56.229Z,872
2017-05-31T14:35:06.528Z,860
2017-05-31T14:36:16.816Z,832
2017-05-31T14:37:27.106Z,780
2017-05-31T14:38:37.404Z,788
2017-05-31T14:39:47.311Z,852
2017-05-31T14:40:57.608Z,864
2017-05-31T14:42:07.897Z,844
2017-05-31T14:43:18.193Z,848
2017-05-31T14:44:28.490Z,884
2017-05-31T14:45:39.035Z,1000
2017-05-31T14:46:49.331Z,1260
2017-05-31T14:47:59.321Z,1632
2017-05-31T14:49:09.306Z,1316
2017-05-31T14:50:19.592Z,952
2017-05-31T14:51:30.158Z,840
2017-05-31T14:52:40.443Z,800
2017-05-31T14:53:50.726Z,816
2017-05-31T14:55:01.007Z,916
2017-05-31T14:56:11.290Z,1088
2017-05-31T14:57:21.828Z,1160
2017-05-31T14:58:31.493Z,1072
2017-05-31T14:59:41.782Z,1048
2017-05-31T15:00:52.094Z,1036
2017-05-31T15:02:02.382Z,1220
2017-05-31T15:03:12.923Z,1096
2017-05-31T15:04:23.225Z,968
2017-05-31T15:05:33.211Z,976
2017-05-31T15:06:43.507Z,888
2017-05-31T15:07:53.815Z,848
2017-05-31T15:09:04.368Z,836
2017-05-31T15:10:14.653Z,776
2017-05-31T15:11:24.940Z,776
2017-05-31T15:12:35.230Z,764
2017-05-31T15:13:45.200Z,764
2017-05-31T15:14:55.732Z,776
2017-05-31T15:16:06.055Z,768
2017-05-31T15:17:16.339Z,776
2017-05-31T15:18:26.318Z,784
2017-05-31T15:19:36.604Z,784
2017-05-31T15:20:47.158Z,804
2017-05-31T15:21:57.467Z,876
2017-05-31T15:23:07.753Z,956
2017-05-31T15:24:17.732Z,944
2017-05-31T15:25:27.707Z,944
2017-05-31T15:26:38.257Z,860
2017-05-31T15:27:48.226Z,804
2017-05-31T15:28:58.592Z,772
2017-05-31T15:30:08.577Z,772
2017-05-31T15:31:18.232Z,780
2017-05-31T15:32:28.775Z,792
2017-05-31T15:33:38.825Z,792
2017-05-31T15:34:49.141Z,804
2017-05-31T15:35:59.128Z,820
2017-05-31T15:37:09.454Z,884
2017-05-31T15:38:19.993Z,1024
2017-05-31T15:39:30.292Z,1088
2017-05-31T15:40:40.273Z,1052
2017-05-31T15:41:50.573Z,968
2017-05-31T15:43:00.554Z,868
2017-05-31T15:44:10.782Z,768
2017-05-31T15:45:21.091Z,756
2017-05-31T15:46:31.075Z,768
2017-05-31T15:47:41.056Z,788
2017-05-31T15:48:51.040Z,824
2017-05-31T15:50:01.581Z,824
2017-05-31T15:51:11.858Z,812
2017-05-31T15:52:21.854Z,808
2017-05-31T15:53:31.857Z,788
2017-05-31T15:54:41.514Z,768
2017-05-31T15:55:52.061Z,760
2017-05-31T15:57:02.415Z,752
2017-05-31T15:58:12.702Z,760